Time;durP1;ratioP1;P1;durP2;ratioP2;P2;SDS_P1;SDS_P2;PMS_P1;PMS_P2;Temp;Humidity;BMP_temperature;BMP_pressure;BME280_temperature;BME280_humidity;BME280_pressure;Samples;Min_cycle;Max_cycle;Signal;HPM_P1;HPM_P2
2022/03/19 00:01:25;;;;;;;43.73;20.87;;;;;;;0.76;77.41;101861.19;5054208;28;20045;-67
2022/03/19 00:03:55;;;;;;;45.55;20.90;;;;;;;0.78;77.77;101858.78;5053840;28;20049;-67
2022/03/19 00:06:24;;;;;;;45.10;20.37;;;;;;;0.68;77.33;101859.75;5054144;28;20228;-67
2022/03/19 00:08:54;;;;;;;42.53;20.27;;;;;;;0.65;78.01;101842.81;5054015;28;20049;-67
2022/03/19 00:11:24;;;;;;;41.35;20.42;;;;;;;0.58;77.93;101849.78;5053802;28;20072;-67
2022/03/19 00:13:52;;;;;;;46.90;20.48;;;;;;;0.47;78.05;101849.00;5053705;28;20515;-67
2022/03/19 00:16:22;;;;;;;47.13;21.30;;;;;;;0.50;77.94;101850.88;5054001;28;20049;-67
2022/03/19 00:18:53;;;;;;;50.53;21.45;;;;;;;0.46;77.88;101848.88;5053957;28;20071;-67
2022/03/19 00:21:22;;;;;;;39.08;19.70;;;;;;;0.47;77.93;101854.03;5053876;28;20110;-67
2022/03/19 00:23:51;;;;;;;44.90;21.13;;;;;;;0.58;78.31;101854.81;5053499;28;20041;-67
2022/03/19 00:26:20;;;;;;;50.45;20.83;;;;;;;0.69;77.76;101838.91;5053285;28;20053;-68
2022/03/19 00:28:49;;;;;;;40.17;19.40;;;;;;;0.71;77.83;101851.56;5054096;28;20091;-67
2022/03/19 00:31:18;;;;;;;45.25;19.90;;;;;;;0.42;77.71;101846.91;5052252;28;20056;-67
2022/03/19 00:33:47;;;;;;;47.65;20.10;;;;;;;0.36;78.07;101846.47;5053319;28;20048;-67
2022/03/19 00:36:18;;;;;;;40.17;18.80;;;;;;;0.41;78.44;101851.03;5053397;28;20099;-67
2022/03/19 00:38:47;;;;;;;41.10;18.55;;;;;;;0.57;78.43;101843.91;5054051;28;20056;-67
2022/03/19 00:41:16;;;;;;;49.50;21.33;;;;;;;0.67;77.76;101845.44;5053324;28;20131;-67
2022/03/19 00:43:45;;;;;;;41.57;21.23;;;;;;;0.60;78.10;101843.25;5052562;28;20041;-68
2022/03/19 00:46:15;;;;;;;51.40;19.70;;;;;;;0.59;78.01;101831.44;5053277;28;20094;-68
2022/03/19 00:48:44;;;;;;;45.72;20.23;;;;;;;0.69;78.12;101828.84;5053603;28;20045;-68
2022/03/19 00:51:13;;;;;;;40.88;19.55;;;;;;;0.67;77.98;101832.88;5053218;28;20052;-67
2022/03/19 00:53:43;;;;;;;48.88;19.58;;;;;;;0.61;77.97;101834.94;5053532;28;20037;-68
2022/03/19 00:56:12;;;;;;;38.72;18.00;;;;;;;0.57;78.04;101827.94;5053583;28;20041;-68
2022/03/19 00:58:41;;;;;;;47.38;20.17;;;;;;;0.44;77.98;101825.28;5053526;28;20439;-67
2022/03/19 01:01:10;;;;;;;29.17;13.90;;;;;;;0.34;78.38;101827.88;5053197;28;20033;-67
2022/03/19 01:03:39;;;;;;;38.10;17.77;;;;;;;0.12;78.11;101804.47;5053070;28;20055;-67
2022/03/19 01:06:08;;;;;;;40.23;17.40;;;;;;;0.22;78.30;101820.31;5053033;28;20045;-68
2022/03/19 01:08:37;;;;;;;40.37;18.53;;;;;;;0.23;78.37;101819.56;5053107;28;20041;-68
2022/03/19 01:11:07;;;;;;;26.58;12.80;;;;;;;0.17;78.58;101824.09;5053202;28;20331;-67
2022/03/19 01:13:36;;;;;;;42.75;18.85;;;;;;;0.28;78.50;101824.91;5053015;28;20061;-67
2022/03/19 01:16:05;;;;;;;43.38;18.90;;;;;;;0.15;78.70;101829.78;5053321;28;20045;-68
2022/03/19 01:18:35;;;;;;;40.25;18.10;;;;;;;0.14;78.93;101823.91;5052990;28;20033;-67
2022/03/19 01:21:04;;;;;;;42.33;17.77;;;;;;;0.14;78.75;101828.91;5053043;28;20489;-67
2022/03/19 01:23:33;;;;;;;42.45;17.48;;;;;;;0.11;78.89;101832.81;5053231;28;20038;-68
2022/03/19 01:26:02;;;;;;;43.80;18.60;;;;;;;0.08;78.92;101822.53;5052716;28;20138;-68
2022/03/19 01:28:32;;;;;;;40.70;18.23;;;;;;;-0.04;78.94;101817.47;5053016;28;20063;-67
2022/03/19 01:31:02;;;;;;;41.08;17.77;;;;;;;0.07;79.37;101810.78;5052926;28;20095;-68
2022/03/19 01:33:31;;;;;;;41.58;18.63;;;;;;;0.15;78.87;101817.22;5053191;28;20087;-68
2022/03/19 01:36:01;;;;;;;40.83;18.13;;;;;;;0.09;78.91;101815.16;5053173;28;20396;-68
2022/03/19 01:38:30;;;;;;;44.23;20.33;;;;;;;-0.01;79.04;101816.09;5053138;28;20082;-68
2022/03/19 01:41:00;;;;;;;45.43;17.50;;;;;;;-0.16;79.10;101812.41;5052826;28;20094;-67
2022/03/19 01:43:29;;;;;;;44.13;18.38;;;;;;;-0.16;79.34;101807.41;5052899;28;20810;-67
2022/03/19 01:45:59;;;;;;;30.67;13.87;;;;;;;-0.05;79.54;101808.22;5052639;28;20048;-68
2022/03/19 01:48:28;;;;;;;40.92;17.25;;;;;;;-0.04;79.54;101807.44;5052781;28;20496;-67
2022/03/19 01:50:57;;;;;;;41.80;17.88;;;;;;;-0.16;79.18;101802.38;5052715;28;20045;-68
2022/03/19 01:53:26;;;;;;;36.08;17.65;;;;;;;-0.11;79.84;101808.63;5052709;28;20045;-67
2022/03/19 01:55:56;;;;;;;36.67;15.05;;;;;;;-0.18;79.40;101798.88;5054402;28;20044;-68
2022/03/19 01:58:25;;;;;;;43.05;17.40;;;;;;;-0.09;79.52;101789.53;5056573;28;20127;-68
2022/03/19 02:00:54;;;;;;;38.67;17.55;;;;;;;-0.20;79.38;101786.97;5056748;28;20397;-68
2022/03/19 02:03:25;;;;;;;35.67;16.55;;;;;;;-0.21;79.52;101788.59;5056246;28;20060;-67
2022/03/19 02:05:55;;;;;;;39.35;17.08;;;;;;;-0.18;79.21;101782.94;5054764;28;20400;-68
2022/03/19 02:08:24;;;;;;;44.13;17.70;;;;;;;-0.19;79.27;101787.09;5056048;28;20048;-68
2022/03/19 02:10:53;;;;;;;28.77;13.35;;;;;;;-0.37;79.02;101785.69;5056306;28;20075;-68
2022/03/19 02:13:22;;;;;;;25.77;12.50;;;;;;;-0.39;79.33;101787.22;5056060;28;20563;-68
2022/03/19 02:15:50;;;;;;;40.47;17.77;;;;;;;-0.19;79.56;101778.69;5056409;28;20412;-68
2022/03/19 02:18:19;;;;;;;42.45;19.77;;;;;;;-0.19;79.62;101768.63;5056152;28;20067;-68
2022/03/19 02:20:51;;;;;;;47.37;17.73;;;;;;;-0.17;79.56;101769.66;5055855;28;20041;-68
2022/03/19 02:26:03;;;;;;;35.88;17.02;;;;;;;-0.16;79.10;101766.38;5055418;28;20049;-68
2022/03/19 02:28:31;;;;;;;39.40;17.70;;;;;;;-0.21;79.43;101761.00;5056012;28;20412;-68
2022/03/19 02:31:00;;;;;;;38.78;17.27;;;;;;;-0.14;79.58;101768.22;5055895;28;20447;-68
2022/03/19 02:33:29;;;;;;;36.13;17.30;;;;;;;-0.23;79.49;101765.03;5055582;28;20037;-68
2022/03/19 02:35:58;;;;;;;44.47;17.97;;;;;;;-0.30;79.60;101765.34;5055574;28;20045;-68
2022/03/19 02:38:28;;;;;;;37.70;16.80;;;;;;;-0.17;79.61;101760.47;5055489;28;20049;-68
2022/03/19 02:40:57;;;;;;;38.72;18.50;;;;;;;-0.06;79.55;101758.78;5055475;28;20081;-68
2022/03/19 02:43:26;;;;;;;42.40;18.90;;;;;;;0.05;79.34;101762.09;5055408;28;20041;-68
2022/03/19 02:45:56;;;;;;;27.33;13.95;;;;;;;0.08;79.49;101759.78;5055885;28;20439;-68
2022/03/19 02:48:25;;;;;;;;;;;;;;;0.02;79.23;101756.84;5055646;28;20048;-68
2022/03/19 02:50:54;;;;;;;37.83;16.65;;;;;;;-0.21;78.78;101755.09;5055256;28;19921;-68
2022/03/19 02:53:24;;;;;;;41.92;18.48;;;;;;;-0.36;79.15;101751.47;5055463;28;20045;-68
2022/03/19 02:55:54;;;;;;;42.93;18.23;;;;;;;-0.34;79.13;101754.97;5055423;28;20401;-68
2022/03/19 02:58:23;;;;;;;42.65;18.08;;;;;;;-0.41;79.28;101753.63;5055029;28;20278;-68
2022/03/19 03:00:52;;;;;;;48.20;18.20;;;;;;;-0.37;79.07;101754.72;5055058;28;20110;-68
2022/03/19 03:03:21;;;;;;;35.50;17.27;;;;;;;-0.21;79.23;101752.59;5055310;28;20041;-68
2022/03/19 03:05:50;;;;;;;37.72;17.92;;;;;;;-0.25;79.20;101750.63;5054822;28;20041;-68
2022/03/19 03:08:19;;;;;;;39.20;17.13;;;;;;;-0.30;79.11;101750.28;5054327;28;20041;-68
2022/03/19 03:10:48;;;;;;;40.30;17.77;;;;;;;-0.31;79.01;101748.53;5055076;28;20041;-68
2022/03/19 03:13:19;;;;;;;35.55;16.70;;;;;;;-0.38;78.80;101748.81;5055004;28;20320;-68
2022/03/19 03:15:48;;;;;;;42.25;17.40;;;;;;;-0.43;79.17;101749.25;5054747;28;20053;-68
2022/03/19 03:18:17;;;;;;;30.33;13.10;;;;;;;-0.49;78.95;101744.66;5054532;28;20041;-68
2022/03/19 03:20:46;;;;;;;36.45;18.02;;;;;;;-0.67;78.91;101748.22;5054657;28;20285;-68
2022/03/19 03:23:15;;;;;;;33.22;15.27;;;;;;;-0.87;78.82;101748.34;5054623;28;20500;-68
2022/03/19 03:25:45;;;;;;;32.05;14.05;;;;;;;-0.84;78.78;101753.59;5054663;28;20041;-68
2022/03/19 03:28:13;;;;;;;39.63;16.45;;;;;;;-0.74;79.01;101751.91;5054808;28;20108;-68
2022/03/19 03:30:44;;;;;;;32.90;14.87;;;;;;;-0.75;78.62;101749.31;5054760;28;20102;-68
2022/03/19 03:33:14;;;;;;;31.23;15.40;;;;;;;-0.65;78.79;101739.22;5054766;28;20064;-68
2022/03/19 03:35:43;;;;;;;34.40;14.73;;;;;;;-0.50;78.48;101737.88;5054430;28;20037;-68
2022/03/19 03:38:12;;;;;;;33.53;15.63;;;;;;;-0.66;78.13;101732.44;5054305;28;20043;-68
2022/03/19 03:40:41;;;;;;;31.35;14.35;;;;;;;-0.47;77.92;101742.25;5054094;28;20072;-68
2022/03/19 03:43:11;;;;;;;28.55;12.95;;;;;;;-0.39;77.99;101737.06;5054572;28;20115;-69
2022/03/19 03:45:40;;;;;;;31.20;13.87;;;;;;;-0.50;77.56;101736.97;5054179;28;20115;-68
2022/03/19 03:48:11;;;;;;;38.08;15.50;;;;;;;-0.47;77.51;101735.59;5054072;28;20040;-68
2022/03/19 03:50:41;;;;;;;32.45;14.45;;;;;;;-0.41;77.20;101736.06;5054112;28;20057;-68
2022/03/19 03:53:11;;;;;;;30.20;14.02;;;;;;;-0.50;77.02;101740.38;5054120;28;20057;-69
2022/03/19 03:55:40;;;;;;;35.55;14.15;;;;;;;-0.43;76.97;101734.22;5054032;28;20055;-69
2022/03/19 03:58:09;;;;;;;31.70;13.85;;;;;;;-0.53;76.70;101732.63;5054260;28;20492;-68
2022/03/19 04:00:38;;;;;;;29.52;14.52;;;;;;;-0.64;76.46;101733.44;5053861;28;20075;-69
2022/03/19 04:03:07;;;;;;;31.67;14.02;;;;;;;-0.83;76.55;101746.19;5053983;28;20045;-68
2022/03/19 04:05:38;;;;;;;27.48;12.05;;;;;;;-0.86;76.73;101740.06;5053893;28;20076;-68
2022/03/19 04:08:07;;;;;;;33.38;14.18;;;;;;;-0.68;76.71;101733.97;5053885;28;20094;-69
2022/03/19 04:10:36;;;;;;;24.00;12.00;;;;;;;-0.80;76.56;101738.03;5053883;28;20103;-69
2022/03/19 04:13:05;;;;;;;36.90;15.43;;;;;;;-0.90;76.34;101738.06;5053806;28;20033;-69
2022/03/19 04:15:34;;;;;;;37.70;14.80;;;;;;;-1.09;76.37;101733.28;5054298;28;20033;-69
2022/03/19 04:18:03;;;;;;;30.65;14.93;;;;;;;-1.18;76.56;101740.06;5053373;28;20049;-68
2022/03/19 04:20:32;;;;;;;32.00;13.93;;;;;;;-1.11;76.67;101737.28;5053086;28;20040;-69
2022/03/19 04:23:03;;;;;;;28.73;14.37;;;;;;;-1.18;77.02;101744.19;5053859;28;20638;-69
2022/03/19 04:25:32;;;;;;;32.42;13.40;;;;;;;-1.16;76.52;101740.19;5053530;28;20285;-69
2022/03/19 04:28:01;;;;;;;28.60;13.27;;;;;;;-1.11;76.54;101736.41;5053570;28;20397;-69
2022/03/19 04:30:30;;;;;;;35.15;13.90;;;;;;;-1.17;76.52;101729.28;5053505;28;20090;-69
2022/03/19 04:33:02;;;;;;;32.95;14.50;;;;;;;-1.25;76.70;101735.34;5053424;28;20068;-69
2022/03/19 04:38:13;;;;;;;34.73;15.60;;;;;;;-1.27;76.75;101733.47;5053481;28;20041;-69
2022/03/19 04:40:42;;;;;;;32.10;15.35;;;;;;;-1.30;76.64;101743.22;5053677;28;20080;-68
2022/03/19 04:43:12;;;;;;;35.00;14.73;;;;;;;-1.37;77.04;101742.72;5053310;28;20098;-69
2022/03/19 04:45:41;;;;;;;;;;;;;;;-1.24;77.75;101749.59;5054355;28;20447;-68
2022/03/19 04:48:11;;;;;;;30.10;14.23;;;;;;;-1.05;77.46;101744.41;5053257;28;19921;-68
2022/03/19 04:50:41;;;;;;;34.95;15.05;;;;;;;-0.94;77.41;101736.09;5053657;28;20103;-69
2022/03/19 04:53:13;;;;;;;33.30;14.15;;;;;;;-0.74;77.66;101736.88;5053196;28;20049;-69
2022/03/19 04:55:42;;;;;;;35.45;15.50;;;;;;;-0.70;76.89;101743.00;5053740;28;20488;-69
2022/03/19 04:58:11;;;;;;;31.42;15.00;;;;;;;-0.86;76.80;101740.94;5053166;28;20041;-69
2022/03/19 05:00:40;;;;;;;35.95;14.57;;;;;;;-1.05;77.18;101742.78;5053489;28;20492;-68
2022/03/19 05:03:09;;;;;;;33.22;14.82;;;;;;;-1.19;76.78;101742.44;5053081;28;20060;-68
2022/03/19 05:05:39;;;;;;;34.97;14.30;;;;;;;-1.31;77.44;101751.50;5053420;28;20393;-68
2022/03/19 05:08:08;;;;;;;37.45;15.70;;;;;;;-1.24;77.33;101743.69;5053325;28;20382;-68
2022/03/19 05:13:18;;;;;;;32.47;12.90;;;;;;;-1.15;77.08;101730.28;5052160;28;20053;-68
2022/03/19 05:15:46;;;;;;;37.13;14.90;;;;;;;-1.11;77.56;101732.28;5053100;28;20048;-68
2022/03/19 05:18:16;;;;;;;25.25;10.70;;;;;;;-1.07;77.29;101728.38;5053072;28;20055;-68
2022/03/19 05:20:44;;;;;;;36.30;15.15;;;;;;;-0.94;77.20;101733.59;5053031;28;20041;-69
2022/03/19 05:23:14;;;;;;;31.30;14.10;;;;;;;-0.94;77.19;101731.09;5053038;28;20038;-69
2022/03/19 05:25:44;;;;;;;37.67;14.80;;;;;;;-0.89;77.43;101734.84;5053079;28;20107;-69
2022/03/19 05:28:13;;;;;;;33.05;14.45;;;;;;;-0.76;77.18;101738.38;5052899;28;20049;-69
2022/03/19 05:30:54;;;;;;;32.22;14.68;;;;;;;-0.58;77.23;101738.94;5054849;28;20057;-69
2022/03/19 05:34:29;;;;;;;31.92;15.07;;;;;;;-0.33;76.96;101734.13;5056655;28;20060;-69
2022/03/19 05:36:14;;;;;;;39.90;16.33;;;;;;;-0.28;76.90;101733.72;5056615;28;20408;-69
2022/03/19 05:38:43;;;;;;;24.80;11.13;;;;;;;-0.32;76.82;101734.25;5056645;28;20045;-68
2022/03/19 05:41:14;;;;;;;38.65;16.52;;;;;;;-0.33;76.59;101737.50;5056600;28;20360;-68
2022/03/19 05:43:43;;;;;;;33.10;14.90;;;;;;;-0.38;76.44;101743.81;5056876;28;20048;-68
2022/03/19 05:46:12;;;;;;;37.60;15.90;;;;;;;-0.35;76.85;101736.53;5056671;28;20044;-68
2022/03/19 05:48:42;;;;;;;38.70;16.88;;;;;;;0.08;76.91;101742.22;5056337;28;20293;-68
2022/03/19 05:51:11;;;;;;;41.78;15.93;;;;;;;0.35;76.56;101739.22;5056733;28;20083;-68
2022/03/19 05:53:41;;;;;;;38.53;16.48;;;;;;;0.47;76.49;101740.13;5056653;28;20041;-68
2022/03/19 05:56:09;;;;;;;40.22;16.42;;;;;;;0.47;75.82;101740.13;5056304;28;20170;-68
2022/03/19 05:58:40;;;;;;;37.93;16.57;;;;;;;0.50;76.01;101740.34;5056466;28;20045;-68
2022/03/19 06:01:09;;;;;;;43.72;19.65;;;;;;;0.65;75.77;101743.94;5056309;28;20073;-68
2022/03/19 06:03:38;;;;;;;25.77;12.48;;;;;;;0.74;75.82;101747.13;5056172;28;20052;-68
2022/03/19 06:06:07;;;;;;;35.60;16.30;;;;;;;0.91;76.35;101739.13;5056146;28;20041;-68
2022/03/19 06:08:37;;;;;;;37.40;17.13;;;;;;;1.07;75.84;101744.47;5055935;28;20052;-68
2022/03/19 06:11:06;;;;;;;36.95;17.02;;;;;;;1.34;75.73;101738.81;5056501;28;20052;-67
2022/03/19 06:13:35;;;;;;;33.40;15.63;;;;;;;1.54;75.57;101744.34;5055901;28;20068;-67
2022/03/19 06:16:06;;;;;;;34.60;17.30;;;;;;;1.68;75.00;101743.66;5055893;28;20045;-67
2022/03/19 06:18:35;;;;;;;38.70;16.15;;;;;;;1.85;75.09;101748.16;5056157;28;20048;-67
2022/03/19 06:21:05;;;;;;;33.33;16.92;;;;;;;2.03;74.15;101736.81;5056027;28;20052;-67
2022/03/19 06:23:33;;;;;;;37.42;17.42;;;;;;;2.30;74.15;101740.28;5056020;28;20044;-67
2022/03/19 06:26:02;;;;;;;38.38;18.58;;;;;;;2.52;73.54;101748.47;5055557;28;20065;-67
2022/03/19 06:28:31;;;;;;;35.23;17.10;;;;;;;2.77;73.76;101740.78;5055655;28;20041;-67
2022/03/19 06:31:00;;;;;;;28.70;12.77;;;;;;;2.89;72.67;101746.59;5055924;28;20041;-67
2022/03/19 06:33:31;;;;;;;34.50;16.52;;;;;;;3.02;72.47;101742.44;5055890;28;20029;-67
2022/03/19 06:38:39;;;;;;;40.05;16.58;;;;;;;3.44;71.92;101740.78;5055457;28;20073;-67
2022/03/19 06:41:08;;;;;;;39.97;16.90;;;;;;;3.61;72.50;101730.94;5055154;28;20041;-67
2022/03/19 06:43:38;;;;;;;32.65;16.95;;;;;;;3.66;71.70;101733.72;5054822;28;20123;-67
2022/03/19 06:46:07;;;;;;;34.92;15.82;;;;;;;3.67;71.24;101736.34;5055349;28;20059;-67
2022/03/19 06:48:37;;;;;;;37.72;15.43;;;;;;;4.02;72.04;101735.91;5055255;28;20033;-67
2022/03/19 06:51:06;;;;;;;37.63;16.10;;;;;;;4.37;71.06;101730.34;5055535;28;20098;-67
2022/03/19 06:53:38;;;;;;;33.63;16.75;;;;;;;4.34;71.00;101730.19;5055255;28;20128;-67
2022/03/19 06:56:07;;;;;;;37.90;17.58;;;;;;;4.61;70.65;101731.72;5055477;28;20458;-67
2022/03/19 06:58:37;;;;;;;34.15;17.02;;;;;;;4.88;69.79;101712.13;5055002;28;20049;-67
2022/03/19 07:01:06;;;;;;;33.90;16.02;;;;;;;5.15;69.02;101722.09;5055180;28;20102;-67
2022/03/19 07:03:35;;;;;;;33.45;16.30;;;;;;;5.22;67.33;101719.13;5054950;28;20033;-67
2022/03/19 07:06:05;;;;;;;36.00;17.05;;;;;;;5.28;67.03;101719.41;5054972;28;20044;-67
2022/03/19 07:08:54;;;;;;;35.28;16.50;;;;;;;5.52;66.67;101719.00;5055222;28;20041;-67
2022/03/19 07:11:23;;;;;;;32.93;16.37;;;;;;;5.78;67.10;101721.19;5054369;28;20515;-67
2022/03/19 07:13:52;;;;;;;34.50;16.27;;;;;;;6.07;66.27;101721.00;5054823;28;20048;-67
2022/03/19 07:16:21;;;;;;;23.63;11.85;;;;;;;6.26;64.89;101723.69;5054451;28;20045;-67
2022/03/19 07:18:51;;;;;;;36.88;16.13;;;;;;;6.15;63.07;101709.59;5054711;28;20044;-67
2022/03/19 07:21:22;;;;;;;31.05;15.02;;;;;;;6.14;60.61;101718.03;5054861;28;20041;-67
2022/03/19 07:23:52;;;;;;;31.95;14.45;;;;;;;6.27;60.41;101712.75;5055030;28;20052;-67
2022/03/19 07:26:21;;;;;;;31.70;15.15;;;;;;;6.46;60.35;101722.09;5053927;28;20057;-67
2022/03/19 07:28:50;;;;;;;30.15;15.18;;;;;;;6.74;59.76;101710.81;5054755;28;20150;-67
2022/03/19 07:31:19;;;;;;;26.42;13.20;;;;;;;6.64;58.78;101720.47;5054233;28;20048;-67
2022/03/19 07:33:50;;;;;;;30.13;15.33;;;;;;;6.61;58.46;101718.66;5054770;28;20408;-67
2022/03/19 07:36:21;;;;;;;29.50;15.00;;;;;;;6.63;58.19;101717.06;5054426;28;20310;-67
2022/03/19 07:38:50;;;;;;;32.03;15.25;;;;;;;6.69;57.77;101714.78;5054712;28;20049;-67
2022/03/19 07:43:57;;;;;;;28.85;13.63;;;;;;;6.88;57.29;101715.69;5054609;28;20086;-67
2022/03/19 07:46:27;;;;;;;29.38;14.27;;;;;;;7.02;57.19;101712.09;5054453;28;20066;-67
2022/03/19 07:48:56;;;;;;;29.70;14.85;;;;;;;7.32;57.33;101713.47;5054347;28;20393;-67
2022/03/19 07:51:27;;;;;;;27.67;14.32;;;;;;;7.14;54.75;101718.63;5054100;28;20116;-67
2022/03/19 07:53:55;;;;;;;31.05;14.77;;;;;;;7.35;55.20;101718.72;5053968;28;20053;-66
2022/03/19 07:56:25;;;;;;;25.27;10.87;;;;;;;7.65;56.37;101709.03;5053251;28;20492;-66
2022/03/19 07:58:54;;;;;;;;;;;;;;;7.97;55.02;101713.81;5054421;28;20106;-66
2022/03/19 08:01:23;;;;;;;27.88;13.90;;;;;;;7.88;54.30;101721.94;5054222;28;20402;-66
2022/03/19 08:03:52;;;;;;;29.67;14.35;;;;;;;7.87;52.56;101722.72;5054111;28;20045;-66
2022/03/19 08:06:21;;;;;;;32.05;14.15;;;;;;;8.02;53.24;101728.47;5054060;28;20112;-66
2022/03/19 08:08:51;;;;;;;29.20;14.17;;;;;;;8.11;52.76;101715.25;5054014;28;20128;-66
2022/03/19 08:11:20;;;;;;;25.88;13.52;;;;;;;8.31;53.04;101721.19;5053857;28;20102;-66
2022/03/19 08:13:49;;;;;;;29.77;13.55;;;;;;;8.44;52.05;101718.38;5053804;28;20044;-66
2022/03/19 08:16:18;;;;;;;25.83;14.07;;;;;;;8.33;51.15;101722.13;5054034;28;20451;-66
2022/03/19 08:18:47;;;;;;;26.63;14.38;;;;;;;8.34;52.12;101723.88;5053964;28;20049;-66
2022/03/19 08:21:17;;;;;;;36.30;15.47;;;;;;;8.17;52.51;101722.28;5053541;28;20087;-69
2022/03/19 08:23:47;;;;;;;29.13;14.48;;;;;;;7.73;53.05;101723.81;5053581;28;20068;-66
2022/03/19 08:26:17;;;;;;;25.85;14.07;;;;;;;7.49;54.13;101725.28;5053246;28;20045;-66
2022/03/19 08:28:46;;;;;;;30.15;15.60;;;;;;;7.76;54.36;101729.03;5053433;28;20056;-66
2022/03/19 08:31:15;;;;;;;28.95;14.98;;;;;;;7.70;54.06;101728.75;5053369;28;20481;-66
2022/03/19 08:33:44;;;;;;;26.45;14.50;;;;;;;7.52;54.89;101725.41;5053840;28;20037;-66
2022/03/19 08:36:13;;;;;;;28.58;14.02;;;;;;;7.63;55.24;101726.75;5053376;28;20102;-66
2022/03/19 08:41:22;;;;;;;27.13;14.27;;;;;;;7.84;55.84;101732.78;5054037;28;20436;-66
2022/03/19 08:43:51;;;;;;;27.38;14.27;;;;;;;8.13;55.70;101737.41;5053514;28;20520;-66
2022/03/19 08:46:20;;;;;;;31.40;14.90;;;;;;;8.39;54.79;101730.03;5053252;28;20067;-66
2022/03/19 08:48:49;;;;;;;29.48;15.38;;;;;;;8.74;52.43;101730.63;5053036;28;20123;-66
2022/03/19 08:53:58;;;;;;;20.57;10.50;;;;;;;8.36;53.62;101740.06;5053083;28;20130;-66
2022/03/19 08:56:28;;;;;;;26.45;14.10;;;;;;;8.56;54.12;101729.03;5053216;28;20049;-66
2022/03/19 08:58:57;;;;;;;28.02;14.50;;;;;;;8.99;52.51;101729.03;5053282;28;20543;-66
2022/03/19 09:01:26;;;;;;;28.70;15.00;;;;;;;9.04;52.37;101736.06;5053078;28;20045;-66
2022/03/19 09:03:55;;;;;;;26.38;14.25;;;;;;;9.22;52.16;101721.47;5053219;28;20277;-66
2022/03/19 09:06:25;;;;;;;29.13;13.73;;;;;;;9.64;51.17;101726.41;5056571;28;20061;-66
2022/03/19 09:08:54;;;;;;;28.87;15.03;;;;;;;9.31;51.06;101726.91;5057070;28;20037;-66
2022/03/19 09:11:23;;;;;;;29.23;15.57;;;;;;;9.31;52.40;101726.00;5057120;28;20041;-66
2022/03/19 09:13:54;;;;;;;28.85;15.77;;;;;;;9.44;52.76;101724.00;5056040;28;20416;-66
2022/03/19 09:16:23;;;;;;;33.70;14.82;;;;;;;9.72;51.25;101724.97;5056231;28;20049;-66
2022/03/19 09:18:53;;;;;;;27.25;14.20;;;;;;;9.72;50.96;101724.97;5057258;28;20036;-66
2022/03/19 09:21:22;;;;;;;25.95;13.55;;;;;;;9.71;50.43;101723.25;5056917;28;20215;-66
2022/03/19 09:23:51;;;;;;;28.90;14.25;;;;;;;9.70;50.56;101726.59;5056877;28;20048;-66
2022/03/19 09:26:20;;;;;;;27.20;14.90;;;;;;;10.42;50.21;101721.50;5056651;28;20049;-66
2022/03/19 09:28:49;;;;;;;26.40;14.10;;;;;;;10.00;50.24;101718.38;5056824;28;20041;-66
2022/03/19 09:31:20;;;;;;;29.17;14.32;;;;;;;9.76;50.71;101727.72;5056933;28;20045;-66
2022/03/19 09:33:49;;;;;;;26.95;14.57;;;;;;;10.07;50.36;101724.53;5056787;28;20049;-66
2022/03/19 09:36:18;;;;;;;28.55;14.40;;;;;;;10.01;49.16;101729.41;5056949;28;20118;-66
2022/03/19 09:38:47;;;;;;;29.40;14.52;;;;;;;9.65;50.40;101728.13;5056958;28;20370;-66
2022/03/19 09:41:16;;;;;;;30.27;14.73;;;;;;;9.55;50.38;101726.06;5056601;28;20052;-66
2022/03/19 09:43:49;;;;;;;25.42;14.40;;;;;;;9.72;50.82;101730.06;5056852;28;20475;-66
2022/03/19 09:46:20;;;;;;;29.60;15.33;;;;;;;9.71;50.03;101728.34;5056512;28;20037;-66
2022/03/19 09:48:49;;;;;;;30.55;15.20;;;;;;;9.50;51.71;101717.38;5056338;28;20284;-66
2022/03/19 09:51:18;;;;;;;28.35;15.27;;;;;;;9.51;51.85;101719.09;5056403;28;20045;-66
2022/03/19 09:53:48;;;;;;;34.17;16.08;;;;;;;9.34;52.05;101727.00;5056549;28;20114;-66
2022/03/19 09:56:33;;;;;;;29.20;14.50;;;;;;;9.27;52.20;101719.94;5056333;28;20060;-66
2022/03/19 09:59:03;;;;;;;31.70;15.52;;;;;;;9.24;52.14;101709.63;5056266;28;20095;-66
2022/03/19 10:01:33;;;;;;;29.33;14.80;;;;;;;9.32;51.98;101733.75;5056258;28;20041;-66
2022/03/19 10:04:04;;;;;;;30.33;14.65;;;;;;;9.44;52.17;101733.31;5056221;28;20290;-66
2022/03/19 10:09:18;;;;;;;26.25;14.20;;;;;;;9.74;51.34;101728.47;5056148;28;20057;-66
2022/03/19 10:11:50;;;;;;;30.27;14.50;;;;;;;9.54;51.43;101737.06;5056007;28;20041;-65
2022/03/19 10:14:24;;;;;;;29.10;14.32;;;;;;;9.59;51.24;101730.47;5056011;28;20049;-66
2022/03/19 10:16:57;;;;;;;27.38;14.10;;;;;;;9.53;51.27;101737.88;5055924;28;20052;-66
2022/03/19 10:19:27;;;;;;;29.15;14.00;;;;;;;9.65;52.11;101740.88;5056115;28;20052;-66
2022/03/19 10:22:08;;;;;;;23.75;12.23;;;;;;;9.62;48.56;101738.22;5055916;28;20045;-65
2022/03/19 10:24:38;;;;;;;23.88;11.73;;;;;;;9.69;46.93;101737.63;5055951;28;20072;-65
2022/03/19 10:27:18;;;;;;;26.38;12.27;;;;;;;10.41;46.06;101734.22;5055507;28;20052;-65
2022/03/19 10:29:49;;;;;;;23.48;9.95;;;;;;;10.21;45.37;101725.91;5055444;28;20098;-65
2022/03/19 10:32:21;;;;;;;22.05;10.82;;;;;;;10.25;44.81;101730.28;5055694;28;20044;-65
2022/03/19 10:34:50;;;;;;;23.20;11.43;;;;;;;10.21;44.05;101722.47;5055942;28;20053;-65
2022/03/19 10:37:34;;;;;;;18.65;10.52;;;;;;;10.34;43.62;101720.34;5055568;28;20041;-66
2022/03/19 10:40:05;;;;;;;21.00;10.35;;;;;;;10.68;43.06;101720.63;5055899;28;20094;-66
2022/03/19 10:42:39;;;;;;;22.15;10.98;;;;;;;11.22;42.88;101716.34;5055706;28;20049;-65
2022/03/19 10:45:11;;;;;;;20.38;10.02;;;;;;;11.92;41.57;101715.78;5055756;28;20485;-66
2022/03/19 10:47:43;;;;;;;20.88;10.07;;;;;;;11.57;41.04;101712.22;5055677;28;20064;-67
2022/03/19 10:50:18;;;;;;;21.70;10.07;;;;;;;11.97;40.28;101715.06;5055242;28;20056;-66
2022/03/19 10:52:48;;;;;;;19.35;10.30;;;;;;;11.48;40.59;101717.09;5055474;28;20059;-65
2022/03/19 10:55:18;;;;;;;20.83;10.43;;;;;;;11.19;41.45;101717.94;5055500;28;20048;-66
2022/03/19 10:57:47;;;;;;;;;;;;;;;11.66;40.74;101712.47;5055559;28;20040;-66
2022/03/19 11:00:19;;;;;;;19.67;9.23;;;;;;;11.32;41.25;101720.03;5055102;28;19920;-66
2022/03/19 11:02:54;;;;;;;19.52;9.20;;;;;;;10.78;41.24;101702.22;5055140;28;20041;-66
2022/03/19 11:05:25;;;;;;;19.73;10.30;;;;;;;11.88;40.24;101707.16;5055016;28;20222;-66
2022/03/19 11:07:56;;;;;;;18.00;9.85;;;;;;;12.23;39.02;101707.19;5055009;28;20052;-66
2022/03/19 11:10:26;;;;;;;20.90;9.70;;;;;;;12.46;38.29;101700.94;5055354;28;20484;-66
2022/03/19 11:12:59;;;;;;;15.90;9.20;;;;;;;12.94;38.02;101703.75;5055470;28;20045;-66
2022/03/19 11:15:34;;;;;;;17.55;9.25;;;;;;;12.87;38.13;101695.06;5055088;28;20055;-66
2022/03/19 11:18:08;;;;;;;17.90;9.65;;;;;;;12.99;37.92;101699.59;5054817;28;20057;-66
2022/03/19 11:20:36;;;;;;;21.27;10.45;;;;;;;12.94;38.58;101686.69;5054829;28;20041;-65
2022/03/19 11:23:09;;;;;;;20.67;10.60;;;;;;;12.90;38.15;101695.16;5054612;28;20048;-67
2022/03/19 11:25:46;;;;;;;19.85;10.95;;;;;;;12.89;38.50;101679.72;5054984;28;20450;-65
2022/03/19 11:28:16;;;;;;;19.45;10.30;;;;;;;12.92;37.60;101688.34;5054399;28;20064;-66
2022/03/19 11:31:00;;;;;;;18.85;10.05;;;;;;;13.10;38.04;101678.50;5054703;28;20037;-66
2022/03/19 11:33:31;;;;;;;18.33;9.30;;;;;;;13.19;38.32;101683.84;5054841;28;20460;-65
2022/03/19 11:36:06;;;;;;;18.65;10.27;;;;;;;13.40;36.51;101676.59;5055081;28;20049;-66
2022/03/19 11:38:41;;;;;;;19.10;10.18;;;;;;;12.99;36.60;101690.22;5054431;28;20060;-66
2022/03/19 11:41:19;;;;;;;18.75;10.07;;;;;;;12.89;36.94;101672.03;5054332;28;20048;-65
2022/03/19 11:43:49;;;;;;;18.42;9.43;;;;;;;13.12;37.52;101676.88;5054577;28;20448;-65
2022/03/19 11:46:18;;;;;;;21.55;10.85;;;;;;;13.00;36.49;101666.31;5054598;28;20550;-65
2022/03/19 11:48:51;;;;;;;21.30;10.57;;;;;;;13.18;36.92;101666.72;5053053;28;20072;-66